Time;durP1;ratioP1;P1;durP2;ratioP2;P2;SDS_P1;SDS_P2;PMS_P1;PMS_P2;Temp;Humidity;BMP_temperature;BMP_pressure;BME280_temperature;BME280_humidity;BME280_pressure;Samples;Min_cycle;Max_cycle;Signal;HPM_P1;HPM_P2
2023/10/06 00:00:18;;;;;;;9.27;4.80;;;13.00;99.90;;;;;;6310608;22;20387;-45
2023/10/06 00:02:44;;;;;;;8.40;5.13;;;13.10;1.00;;;;;;6311813;22;20393;-45
2023/10/06 00:05:12;;;;;;;7.40;4.40;;;13.00;99.90;;;;;;6310377;22;20716;-45
2023/10/06 00:07:40;;;;;;;9.97;6.20;;;13.00;99.90;;;;;;6311418;22;20455;-45
2023/10/06 00:10:14;;;;;;;8.90;5.30;;;12.90;99.90;;;;;;6310884;22;20781;-45
2023/10/06 00:12:39;;;;;;;7.80;4.50;;;12.80;99.90;;;;;;6310704;22;20421;-45
2023/10/06 00:15:09;;;;;;;9.63;4.53;;;12.80;99.90;;;;;;6310928;22;20406;-45
2023/10/06 00:17:35;;;;;;;10.43;4.90;;;12.70;99.90;;;;;;6310282;22;20409;-45
2023/10/06 00:20:01;;;;;;;7.60;4.60;;;12.70;99.90;;;;;;6310699;22;20389;-45
2023/10/06 00:22:26;;;;;;;10.27;4.70;;;12.60;99.90;;;;;;6283932;22;20387;-45
2023/10/06 00:24:59;;;;;;;7.83;4.33;;;12.60;99.90;;;;;;6311567;22;20171;-45
2023/10/06 00:27:29;;;;;;;6.07;4.30;;;12.60;99.90;;;;;;6285802;22;20453;-45
2023/10/06 00:29:55;;;;;;;6.53;4.27;;;12.50;99.90;;;;;;6311038;22;20443;-45
2023/10/06 00:32:26;;;;;;;5.63;4.50;;;12.50;99.90;;;;;;6310761;22;20425;-45
2023/10/06 00:34:54;;;;;;;8.70;5.50;;;12.50;99.90;;;;;;6310500;22;20355;-45
2023/10/06 00:37:23;;;;;;;7.93;5.37;;;12.40;99.90;;;;;;6310627;22;20397;-45
2023/10/06 00:39:50;;;;;;;7.27;4.70;;;12.40;99.90;;;;;;6311063;22;20761;-45
2023/10/06 00:42:26;;;;;;;6.30;4.80;;;12.40;99.90;;;;;;6310773;22;20473;-46
2023/10/06 00:44:53;;;;;;;6.77;4.17;;;12.30;99.90;;;;;;6309566;22;20839;-45
2023/10/06 00:47:21;;;;;;;6.93;4.80;;;12.30;99.90;;;;;;6283378;22;20389;-45
2023/10/06 00:49:46;;;;;;;6.03;4.80;;;12.30;99.90;;;;;;6310782;22;20445;-46
2023/10/06 00:52:15;;;;;;;6.90;4.50;;;12.30;99.90;;;;;;6311458;22;20678;-45
2023/10/06 00:54:46;;;;;;;7.30;4.70;;;12.20;99.90;;;;;;6311285;22;20389;-45
2023/10/06 00:57:15;;;;;;;6.90;4.10;;;12.20;99.90;;;;;;6310118;22;20495;-45
2023/10/06 00:59:41;;;;;;;6.07;4.67;;;12.20;99.90;;;;;;6310928;22;20396;-45
2023/10/06 01:02:08;;;;;;;5.17;3.97;;;12.20;99.90;;;;;;6310043;22;20440;-45
2023/10/06 01:04:44;;;;;;;8.53;5.20;;;12.20;99.90;;;;;;6309145;22;20408;-45
2023/10/06 01:07:16;;;;;;;7.10;4.97;;;12.10;99.90;;;;;;6310876;22;20384;-45
2023/10/06 01:10:06;;;;;;;7.30;4.53;;;12.10;99.90;;;;;;6310568;22;20386;-45
2023/10/06 01:12:32;;;;;;;5.90;4.37;;;12.10;99.90;;;;;;6311157;22;20421;-45
2023/10/06 01:15:19;;;;;;;6.80;4.43;;;12.10;99.90;;;;;;6310524;22;20398;-45
2023/10/06 01:17:44;;;;;;;6.57;4.87;;;12.10;1.00;;;;;;6309794;22;20389;-45
2023/10/06 01:20:12;;;;;;;6.33;3.70;;;12.00;1.00;;;;;;6310311;22;20378;-45
2023/10/06 01:22:44;;;;;;;5.97;4.27;;;12.00;99.90;;;;;;6310357;22;20355;-45
2023/10/06 01:25:20;;;;;;;10.53;5.03;;;12.00;1.00;;;;;;6311559;22;20469;-45
2023/10/06 01:27:50;;;;;;;5.17;4.03;;;12.00;1.00;;;;;;6310990;22;20393;-45
2023/10/06 01:32:45;;;;;;;5.77;3.43;;;11.90;99.90;;;;;;6310065;22;20434;-45
2023/10/06 01:35:12;;;;;;;5.73;4.20;;;11.90;99.90;;;;;;6310365;22;20532;-45
2023/10/06 01:37:42;;;;;;;8.00;4.67;;;11.90;99.90;;;;;;6310684;22;20385;-45
2023/10/06 01:40:25;;;;;;;6.60;4.97;;;11.90;99.90;;;;;;6311316;22;20374;-45
2023/10/06 01:42:52;;;;;;;7.27;4.37;;;11.80;1.00;;;;;;6310079;22;20390;-45
2023/10/06 01:45:21;;;;;;;7.70;4.50;;;11.80;1.00;;;;;;6309946;22;20382;-45
2023/10/06 01:47:56;;;;;;;9.13;4.50;;;11.80;1.00;;;;;;6309271;22;20387;-45
2023/10/06 01:50:27;;;;;;;7.83;5.40;;;11.80;1.00;;;;;;6309189;22;20386;-45
2023/10/06 01:52:58;;;;;;;5.97;4.60;;;11.80;1.00;;;;;;6307654;22;20859;-45
2023/10/06 01:55:24;;;;;;;5.43;4.07;;;11.80;1.00;;;;;;6310082;22;20445;-45
2023/10/06 01:57:54;;;;;;;7.93;4.83;;;11.80;1.00;;;;;;6310301;22;20683;-45
2023/10/06 02:00:26;;;;;;;6.20;4.73;;;11.80;1.00;;;;;;6309231;22;20550;-45
2023/10/06 02:02:52;;;;;;;7.13;5.37;;;11.80;1.00;;;;;;6308829;22;20386;-45
2023/10/06 02:05:18;;;;;;;6.33;4.50;;;11.70;1.00;;;;;;6309835;22;20386;-45
2023/10/06 02:07:44;;;;;;;6.10;4.60;;;11.70;1.00;;;;;;6309700;22;20366;-46
2023/10/06 02:10:15;;;;;;;5.47;4.30;;;11.70;1.00;;;;;;6306723;22;20176;-46
2023/10/06 02:12:41;;;;;;;8.03;4.93;;;11.70;1.00;;;;;;6308020;22;20701;-46
2023/10/06 02:15:10;;;;;;;5.70;4.10;;;11.70;1.00;;;;;;6309987;22;20389;-45
2023/10/06 02:17:42;;;;;;;5.93;4.57;;;11.70;1.00;;;;;;6309686;22;20374;-45
2023/10/06 02:20:28;;;;;;;7.37;5.27;;;11.60;1.00;;;;;;6310247;22;20389;-45
2023/10/06 02:22:57;;;;;;;9.30;5.40;;;11.60;1.00;;;;;;6309091;22;20359;-45
2023/10/06 02:25:23;;;;;;;5.60;4.17;;;11.60;1.00;;;;;;6309881;22;20355;-45
2023/10/06 02:27:50;;;;;;;7.67;4.97;;;11.60;1.00;;;;;;6310516;22;20480;-45
2023/10/06 02:30:19;;;;;;;5.47;4.30;;;11.60;1.00;;;;;;6309123;22;20152;-45
2023/10/06 02:32:45;;;;;;;7.53;4.03;;;11.60;1.00;;;;;;6309277;22;20425;-45
2023/10/06 02:35:17;;;;;;;6.00;3.93;;;11.60;1.00;;;;;;6309793;22;20389;-46
2023/10/06 02:37:45;;;;;;;6.77;4.23;;;11.60;1.00;;;;;;6310479;22;20619;-45
2023/10/06 02:40:11;;;;;;;6.73;4.80;;;11.60;1.00;;;;;;6310152;22;20440;-45
2023/10/06 02:42:45;;;;;;;6.07;4.33;;;11.50;1.00;;;;;;6309450;22;20381;-45
2023/10/06 02:45:20;;;;;;;7.03;4.73;;;11.50;1.00;;;;;;6310838;22;20481;-45
2023/10/06 02:47:49;;;;;;;9.47;5.67;;;11.50;1.00;;;;;;6308375;22;20392;-47
2023/10/06 02:50:20;;;;;;;6.40;4.13;;;11.50;1.00;;;;;;6308346;22;20386;-45
2023/10/06 02:52:46;;;;;;;7.00;4.20;;;11.50;1.00;;;;;;6308297;22;20473;-45
2023/10/06 02:55:19;;;;;;;5.20;4.40;;;11.50;1.00;;;;;;6308865;22;20786;-45
2023/10/06 02:57:50;;;;;;;6.50;4.57;;;11.50;1.00;;;;;;6309666;22;20683;-45
2023/10/06 03:03:03;;;;;;;7.63;5.00;;;11.40;1.00;;;;;;6309813;22;20507;-45
2023/10/06 03:05:32;;;;;;;7.00;4.27;;;11.40;1.00;;;;;;6309455;22;20378;-45
2023/10/06 03:08:01;;;;;;;7.77;5.67;;;11.40;1.00;;;;;;6309916;22;20354;-45
2023/10/06 03:10:30;;;;;;;6.63;4.70;;;11.40;1.00;;;;;;6309779;22;20359;-45
2023/10/06 03:12:57;;;;;;;5.40;4.40;;;11.40;1.00;;;;;;6310226;22;20483;-45
2023/10/06 03:15:33;;;;;;;7.53;4.57;;;11.40;1.00;;;;;;6309555;22;20856;-45
2023/10/06 03:17:59;;;;;;;6.20;4.47;;;11.40;1.00;;;;;;6309868;22;20770;-45
2023/10/06 03:23:37;;;;;;;6.93;4.90;;;11.40;1.00;;;;;;6287595;22;20160;-45
2023/10/06 03:26:06;;;;;;;7.77;5.07;;;11.40;1.00;;;;;;6308310;22;20770;-45
2023/10/06 03:28:36;;;;;;;8.33;4.60;;;11.30;1.00;;;;;;6309611;22;20377;-45
2023/10/06 03:31:22;;;;;;;6.93;4.77;;;11.30;1.00;;;;;;6306809;22;20449;-45
2023/10/06 03:33:49;;;;;;;8.80;5.67;;;11.30;1.00;;;;;;6309274;22;20459;-44
2023/10/06 03:36:26;;;;;;;5.93;4.20;;;11.30;1.00;;;;;;6309439;22;20374;-44
2023/10/06 03:38:55;;;;;;;6.73;4.70;;;11.30;1.00;;;;;;6308340;22;20781;-45
2023/10/06 03:41:32;;;;;;;7.27;4.37;;;11.30;1.00;;;;;;6309276;22;20386;-45
2023/10/06 03:44:00;;;;;;;8.00;4.57;;;11.30;1.00;;;;;;6310069;22;20423;-45
2023/10/06 03:46:36;;;;;;;5.40;4.20;;;11.30;1.00;;;;;;6309689;22;20420;-45
2023/10/06 03:49:05;;;;;;;8.90;5.00;;;11.20;1.00;;;;;;6311493;22;20386;-45
2023/10/06 03:51:40;;;;;;;7.27;4.07;;;11.20;1.00;;;;;;6309919;22;20401;-45
2023/10/06 03:54:07;;;;;;;6.27;4.17;;;11.20;1.00;;;;;;6311953;22;20701;-45
2023/10/06 03:56:33;;;;;;;7.33;4.70;;;11.20;1.00;;;;;;6310109;22;20358;-45
2023/10/06 03:59:00;;;;;;;7.63;4.90;;;11.20;1.00;;;;;;6312312;22;20379;-45
2023/10/06 04:01:31;;;;;;;7.23;5.50;;;11.20;1.00;;;;;;6309500;22;20546;-45
2023/10/06 04:04:00;;;;;;;6.60;4.30;;;11.20;1.00;;;;;;6310779;22;20386;-45
2023/10/06 04:06:26;;;;;;;6.80;4.67;;;11.10;1.00;;;;;;6311118;22;20712;-45
2023/10/06 04:08:53;;;;;;;8.10;4.63;;;11.10;1.00;;;;;;6309198;22;20359;-45
2023/10/06 04:11:19;;;;;;;7.60;4.07;;;11.10;1.00;;;;;;6308444;22;20738;-45
2023/10/06 04:13:45;;;;;;;5.60;4.30;;;11.10;1.00;;;;;;6280769;22;20434;-44
2023/10/06 04:16:14;;;;;;;7.17;5.80;;;11.10;1.00;;;;;;6308322;22;21001;-45
2023/10/06 04:18:40;;;;;;;9.50;5.30;;;11.10;1.00;;;;;;6308181;22;20431;-45
2023/10/06 04:21:11;;;;;;;8.80;4.80;;;11.00;1.00;;;;;;6308238;22;20363;-45
2023/10/06 04:23:42;;;;;;;6.93;4.40;;;11.00;1.00;;;;;;6308193;22;20427;-45
2023/10/06 04:26:09;;;;;;;6.60;5.10;;;11.00;1.00;;;;;;6307796;22;20394;-45
2023/10/06 04:28:36;;;;;;;8.00;4.67;;;11.00;1.00;;;;;;6306863;22;20640;-45
2023/10/06 04:31:02;;;;;;;6.30;4.60;;;11.00;1.00;;;;;;6308388;22;20422;-45
2023/10/06 04:33:31;;;;;;;6.63;5.80;;;11.00;1.00;;;;;;6306997;22;20751;-45
2023/10/06 04:36:07;;;;;;;4.67;3.97;;;11.00;1.00;;;;;;6307645;22;20801;-45
2023/10/06 04:38:36;;;;;;;8.17;5.10;;;10.90;1.00;;;;;;6304803;22;20362;-45
2023/10/06 04:41:02;;;;;;;7.33;4.80;;;10.90;1.00;;;;;;6306859;22;20374;-45
2023/10/06 04:43:28;;;;;;;9.10;5.97;;;10.90;1.00;;;;;;6307310;22;20464;-45
2023/10/06 04:45:55;;;;;;;8.23;5.23;;;10.90;1.00;;;;;;6306321;22;20697;-45
2023/10/06 04:48:21;;;;;;;9.13;5.10;;;10.90;1.00;;;;;;6306839;22;20198;-45
2023/10/06 04:50:50;;;;;;;6.20;5.40;;;10.90;17.20;;;;;;6306706;22;20351;-45
2023/10/06 04:53:16;;;;;;;8.83;5.73;;;10.90;66.40;;;;;;6308062;22;20913;-45
2023/10/06 04:55:42;;;;;;;7.53;5.23;;;10.90;68.90;;;;;;6305800;22;20392;-45
2023/10/06 04:58:09;;;;;;;8.23;5.73;;;10.90;94.80;;;;;;6306569;22;20451;-45
2023/10/06 05:00:35;;;;;;;10.40;5.60;;;10.90;99.90;;;;;;6306253;22;20386;-45
2023/10/06 05:03:05;;;;;;;6.47;4.97;;;10.90;99.90;;;;;;6282545;22;20401;-45
2023/10/06 05:05:34;;;;;;;7.87;5.37;;;10.90;99.90;;;;;;6308930;22;20147;-44
2023/10/06 05:08:00;;;;;;;7.80;5.53;;;10.90;99.90;;;;;;6307500;22;20469;-45
2023/10/06 05:10:26;;;;;;;8.17;5.33;;;10.90;99.90;;;;;;6301800;22;20382;-44
2023/10/06 05:12:52;;;;;;;7.20;5.10;;;10.90;99.90;;;;;;6303941;22;20974;-44
2023/10/06 05:15:26;;;;;;;9.27;6.33;;;10.90;99.90;;;;;;6301089;22;20427;-44
2023/10/06 05:17:55;;;;;;;7.97;5.33;;;10.90;99.90;;;;;;6299001;22;20367;-44
2023/10/06 05:20:32;;;;;;;7.37;6.00;;;10.90;99.90;;;;;;6269755;22;20351;-44
2023/10/06 05:23:02;;;;;;;8.20;4.80;;;10.90;99.90;;;;;;6297689;22;20537;-45
2023/10/06 05:25:29;;;;;;;7.40;4.87;;;10.90;99.90;;;;;;6299778;22;20712;-44
2023/10/06 05:27:59;;;;;;;6.80;5.20;;;10.90;99.90;;;;;;6297700;22;20697;-44
2023/10/06 05:30:32;;;;;;;7.10;5.37;;;10.90;99.90;;;;;;6295023;22;20465;-44
2023/10/06 05:32:58;;;;;;;9.07;5.60;;;10.90;99.90;;;;;;6299686;22;20406;-45
2023/10/06 05:35:29;;;;;;;11.40;5.40;;;10.90;99.90;;;;;;6301809;22;20778;-45
2023/10/06 05:37:54;;;;;;;11.97;5.70;;;10.90;99.90;;;;;;6302270;22;20687;-44
2023/10/06 05:40:20;;;;;;;7.60;5.33;;;10.90;99.90;;;;;;6304631;22;20385;-44
2023/10/06 05:42:50;;;;;;;9.37;5.53;;;10.90;99.90;;;;;;6301620;22;20646;-44
2023/10/06 05:45:19;;;;;;;7.10;5.23;;;10.90;99.90;;;;;;6305378;22;20732;-44
2023/10/06 05:47:50;;;;;;;9.43;5.87;;;10.90;99.90;;;;;;6306621;22;20416;-44
2023/10/06 05:50:27;;;;;;;7.00;5.40;;;11.00;99.90;;;;;;6305820;22;20461;-44
2023/10/06 05:53:02;;;;;;;7.17;5.07;;;11.00;99.90;;;;;;6305550;22;20828;-44
2023/10/06 05:55:31;;;;;;;9.10;5.60;;;11.00;99.90;;;;;;6306894;22;20425;-46
2023/10/06 05:58:00;;;;;;;7.97;5.10;;;11.00;99.90;;;;;;6306061;22;20374;-45
2023/10/06 06:00:35;;;;;;;8.90;6.13;;;11.10;99.90;;;;;;6305219;22;20382;-45
2023/10/06 06:03:10;;;;;;;9.97;6.00;;;11.10;99.90;;;;;;6305653;22;20354;-45
2023/10/06 06:05:38;;;;;;;9.50;5.60;;;11.20;99.90;;;;;;6301324;22;20746;-45
2023/10/06 06:08:10;;;;;;;6.00;4.97;;;11.30;99.90;;;;;;6302653;22;20378;-45
2023/10/06 06:10:36;;;;;;;9.73;5.97;;;11.50;29.70;;;;;;6276062;22;20417;-45
2023/10/06 06:13:05;;;;;;;9.20;5.83;;;11.50;10.30;;;;;;6274273;22;20892;-45
2023/10/06 06:15:31;;;;;;;9.70;6.40;;;11.70;1.00;;;;;;6302387;22;20398;-46
2023/10/06 06:18:00;;;;;;;10.20;6.50;;;11.80;1.00;;;;;;6303469;22;20440;-46
2023/10/06 06:20:29;;;;;;;7.83;5.80;;;11.90;1.00;;;;;;6304062;22;20647;-46
2023/10/06 06:22:58;;;;;;;9.33;5.67;;;12.10;1.00;;;;;;6306031;22;20464;-46
2023/10/06 06:25:26;;;;;;;8.83;5.87;;;12.20;1.00;;;;;;6304247;22;20414;-46
2023/10/06 06:27:54;;;;;;;12.00;7.17;;;12.40;1.00;;;;;;6303680;22;20394;-46
2023/10/06 06:30:24;;;;;;;8.70;5.97;;;12.60;1.00;;;;;;6271251;22;20522;-46
2023/10/06 06:32:52;;;;;;;9.30;6.40;;;12.70;99.90;;;;;;6272846;22;20399;-46
2023/10/06 06:35:22;;;;;;;9.63;5.97;;;12.90;99.90;;;;;;6275068;22;20437;-46
2023/10/06 06:37:52;;;;;;;8.70;5.70;;;13.10;99.90;;;;;;6276847;22;20386;-46
2023/10/06 06:40:21;;;;;;;10.00;6.00;;;13.40;99.90;;;;;;6275783;22;20383;-46
2023/10/06 06:42:52;;;;;;;9.87;5.87;;;13.60;99.90;;;;;;6275580;22;20387;-45
2023/10/06 06:45:24;;;;;;;6.93;5.13;;;13.80;24.00;;;;;;6273427;22;20387;-46
2023/10/06 06:47:50;;;;;;;9.70;6.00;;;14.10;1.00;;;;;;6272932;22;20444;-46
2023/10/06 06:50:17;;;;;;;8.20;5.67;;;14.30;1.00;;;;;;6276585;22;20371;-45
2023/10/06 06:52:47;;;;;;;9.00;5.83;;;14.60;1.00;;;;;;6276182;22;20441;-46
2023/10/06 06:55:13;;;;;;;7.97;6.30;;;14.80;1.00;;;;;;6273947;22;20391;-46
2023/10/06 06:57:43;;;;;;;8.33;5.60;;;15.10;99.90;;;;;;6274884;22;20426;-46
2023/10/06 07:00:16;;;;;;;13.33;5.00;;;15.40;99.90;;;;;;6271564;22;20421;-46
2023/10/06 07:02:46;;;;;;;10.20;5.00;;;15.80;99.90;;;;;;6276030;22;20363;-46
2023/10/06 07:05:17;;;;;;;16.37;6.63;;;16.30;99.90;;;;;;6278626;22;20421;-47
2023/10/06 07:07:43;;;;;;;29.70;6.97;;;16.70;99.90;;;;;;6277345;22;20600;-41
2023/10/06 07:10:19;;;;;;;21.87;6.50;;;17.40;24.70;;;;;;6277297;22;20469;-42
2023/10/06 07:12:46;;;;;;;37.10;9.67;;;18.30;1.00;;;;;;6275214;22;20437;-44
2023/10/06 07:15:15;;;;;;;34.93;7.97;;;18.90;1.00;;;;;;6275008;22;20477;-41
2023/10/06 07:17:58;;;;;;;35.93;9.40;;;19.30;1.00;;;;;;6275666;22;20362;-42
2023/10/06 07:20:30;;;;;;;38.63;8.43;;;19.70;1.00;;;;;;6276535;22;20668;-45
2023/10/06 07:22:56;;;;;;;60.13;12.80;;;19.90;1.00;;;;;;6274963;22;20469;-43
2023/10/06 07:25:26;;;;;;;82.27;17.27;;;20.20;1.00;;;;;;6245639;22;20659;-40
2023/10/06 07:27:57;;;;;;;85.77;14.97;;;20.60;1.00;;;;;;6270866;22;20690;-41
2023/10/06 07:30:28;;;;;;;67.07;12.63;;;21.20;1.00;;;;;;6271768;22;20438;-42
2023/10/06 07:32:55;;;;;;;52.83;12.23;;;21.90;1.00;;;;;;6272189;22;20403;-40
2023/10/06 07:35:27;;;;;;;58.83;12.90;;;22.70;1.00;;;;;;6273842;22;20364;-40
2023/10/06 07:37:53;;;;;;;61.17;12.73;;;23.60;1.00;;;;;;6273514;22;20375;-39
2023/10/06 07:40:21;;;;;;;56.60;10.97;;;24.60;1.00;;;;;;6271494;22;20466;-40
2023/10/06 07:42:51;;;;;;;53.87;12.37;;;25.50;1.00;;;;;;6272346;22;20235;-40
2023/10/06 07:45:18;;;;;;;43.73;10.40;;;26.40;1.00;;;;;;6271919;22;20398;-40
2023/10/06 07:47:44;;;;;;;34.83;8.80;;;27.20;1.00;;;;;;6274198;22;20426;-42
2023/10/06 07:50:14;;;;;;;21.40;7.60;;;27.80;1.00;;;;;;6273903;22;20457;-41
2023/10/06 07:52:43;;;;;;;17.40;8.00;;;28.40;1.00;;;;;;6275639;22;20426;-40
2023/10/06 07:55:10;;;;;;;30.43;8.33;;;28.90;1.00;;;;;;6273037;22;20705;-39
2023/10/06 07:57:36;;;;;;;15.03;6.97;;;29.50;1.00;;;;;;6274122;22;20394;-39
2023/10/06 08:00:06;;;;;;;15.47;7.10;;;29.80;1.00;;;;;;6274332;22;20625;-43
2023/10/06 08:02:33;;;;;;;17.27;7.70;;;30.20;1.00;;;;;;6275253;22;20360;-41
2023/10/06 08:05:01;;;;;;;13.77;7.10;;;30.60;1.00;;;;;;6278396;22;20349;-44
2023/10/06 08:07:27;;;;;;;14.73;7.00;;;30.80;1.00;;;;;;6275025;22;20387;-40
2023/10/06 08:10:05;;;;;;;10.67;5.80;;;31.10;1.00;;;;;;6274976;22;20358;-40
2023/10/06 08:12:33;;;;;;;10.80;6.73;;;31.40;1.00;;;;;;6272723;22;20846;-40
2023/10/06 08:15:09;;;;;;;9.50;6.73;;;31.90;1.00;;;;;;6274015;22;20387;-43
2023/10/06 08:17:37;;;;;;;9.67;6.13;;;32.30;1.00;;;;;;6274364;22;20341;-43
2023/10/06 08:20:05;;;;;;;12.23;6.67;;;32.70;1.00;;;;;;6275278;22;20410;-45
2023/10/06 08:22:33;;;;;;;9.37;6.20;;;32.70;1.00;;;;;;6274956;22;20545;-42
2023/10/06 08:25:01;;;;;;;9.90;6.30;;;33.00;1.00;;;;;;6276175;22;20390;-42
2023/10/06 08:27:27;;;;;;;13.13;6.40;;;33.50;1.00;;;;;;6277094;22;20419;-43
2023/10/06 08:29:52;;;;;;;14.77;6.60;;;33.90;1.00;;;;;;6291909;22;20401;-42
2023/10/06 08:32:19;;;;;;;10.20;6.20;;;34.20;1.00;;;;;;6280242;22;20411;-40
2023/10/06 08:34:46;;;;;;;8.90;5.67;;;34.40;1.00;;;;;;6306777;22;20144;-41
2023/10/06 08:37:15;;;;;;;9.27;6.30;;;34.50;1.00;;;;;;6307464;22;20353;-41
2023/10/06 08:39:40;;;;;;;7.90;6.23;;;34.80;1.00;;;;;;6307412;22;20459;-44
2023/10/06 08:42:15;;;;;;;8.67;5.30;;;35.10;1.00;;;;;;6306616;22;20361;-44
2023/10/06 08:44:44;;;;;;;8.63;6.03;;;34.90;1.00;;;;;;6307681;22;20210;-44
2023/10/06 08:47:13;;;;;;;8.73;5.70;;;35.20;1.00;;;;;;6306540;22;20377;-42
2023/10/06 08:49:41;;;;;;;10.67;6.10;;;35.10;1.00;;;;;;6306598;22;20632;-40
2023/10/06 08:52:09;;;;;;;15.23;6.73;;;35.90;1.00;;;;;;6279314;22;21069;-42
2023/10/06 08:54:35;;;;;;;14.30;7.20;;;36.40;1.00;;;;;;6277547;22;20385;-43
2023/10/06 08:57:00;;;;;;;12.27;6.37;;;36.60;1.00;;;;;;6304530;22;20337;-42
2023/10/06 08:59:27;;;;;;;14.40;7.50;;;36.60;1.00;;;;;;6303974;22;20136;-41
2023/10/06 09:01:53;;;;;;;16.90;6.80;;;36.70;1.00;;;;;;6304725;22;20507;-41
2023/10/06 09:04:21;;;;;;;8.97;6.60;;;36.60;1.00;;;;;;6304909;22;20416;-43
2023/10/06 09:07:08;;;;;;;8.63;6.50;;;37.20;1.00;;;;;;6304832;22;20144;-43
2023/10/06 09:09:34;;;;;;;14.03;7.23;;;37.40;1.00;;;;;;6304712;22;20374;-44
2023/10/06 09:12:00;;;;;;;9.57;5.53;;;37.90;1.00;;;;;;6305473;22;20342;-42
2023/10/06 09:14:25;;;;;;;11.90;6.53;;;38.10;1.00;;;;;;6306806;22;20336;-42
2023/10/06 09:16:51;;;;;;;15.07;7.07;;;38.60;1.00;;;;;;6305297;22;20148;-41
2023/10/06 09:19:18;;;;;;;12.27;6.60;;;38.80;1.00;;;;;;6302661;22;20235;-41
2023/10/06 09:22:06;;;;;;;13.00;6.07;;;39.30;1.00;;;;;;6304569;22;20140;-42
2023/10/06 09:24:32;;;;;;;8.77;6.03;;;39.40;1.00;;;;;;6303666;22;20371;-43
2023/10/06 09:26:58;;;;;;;9.50;5.30;;;39.60;1.00;;;;;;6305145;22;20377;-42
2023/10/06 09:29:36;;;;;;;14.50;7.10;;;39.90;1.00;;;;;;6304022;22;20861;-43
2023/10/06 09:32:19;;;;;;;11.53;6.07;;;39.90;1.00;;;;;;6302895;22;20147;-43
2023/10/06 09:34:45;;;;;;;6.07;5.23;;;39.80;1.00;;;;;;6300056;22;20612;-41
2023/10/06 09:37:20;;;;;;;15.70;7.47;;;39.80;1.00;;;;;;6304079;22;20378;-42
2023/10/06 09:39:57;;;;;;;9.40;5.77;;;39.80;1.00;;;;;;6304032;22;20382;-42
2023/10/06 09:42:30;;;;;;;12.43;5.67;;;40.00;1.00;;;;;;6303677;22;20474;-44
2023/10/06 09:45:15;;;;;;;11.93;6.00;;;39.70;1.00;;;;;;6275452;22;20797;-43
2023/10/06 09:47:49;;;;;;;8.93;6.00;;;39.70;1.00;;;;;;6302178;22;20638;-42
2023/10/06 09:50:18;;;;;;;8.87;5.63;;;39.40;1.00;;;;;;6302421;22;20376;-41
2023/10/06 09:52:47;;;;;;;9.03;5.73;;;39.50;1.00;;;;;;6304833;22;20429;-44
2023/10/06 09:55:14;;;;;;;10.37;6.03;;;39.40;1.00;;;;;;6277038;22;20382;-42
2023/10/06 09:57:43;;;;;;;7.37;5.80;;;39.60;1.00;;;;;;6276057;22;20465;-41
2023/10/06 10:00:16;;;;;;;8.57;5.77;;;39.20;1.00;;;;;;6302511;22;20468;-44
2023/10/06 10:02:47;;;;;;;8.40;6.13;;;39.00;1.00;;;;;;6304356;22;20649;-44
2023/10/06 10:05:20;;;;;;;8.40;5.50;;;38.80;1.00;;;;;;6301916;22;20370;-44
2023/10/06 10:07:49;;;;;;;7.20;6.47;;;38.80;1.00;;;;;;6275359;22;20375;-41
2023/10/06 10:10:22;;;;;;;8.47;6.30;;;39.00;1.00;;;;;;6276526;22;20466;-42
2023/10/06 10:13:07;;;;;;;9.80;5.53;;;38.90;1.00;;;;;;6277964;22;20426;-45
2023/10/06 10:15:39;;;;;;;6.30;5.33;;;39.30;1.00;;;;;;6305415;22;20785;-42
2023/10/06 10:18:15;;;;;;;6.37;5.70;;;39.50;1.00;;;;;;6304024;22;20429;-45
2023/10/06 10:20:40;;;;;;;6.60;5.90;;;39.90;1.00;;;;;;6302677;22;20378;-42
2023/10/06 10:23:06;;;;;;;18.03;6.87;;;40.50;1.00;;;;;;6276812;22;20429;-43
2023/10/06 10:25:34;;;;;;;14.20;6.30;;;40.80;1.00;;;;;;6304449;22;20158;-44
2023/10/06 10:28:15;;;;;;;12.80;6.30;;;41.40;1.00;;;;;;6304652;22;20715;-44
2023/10/06 10:30:49;;;;;;;8.10;5.87;;;41.80;1.00;;;;;;6251787;22;20445;-45
2023/10/06 10:33:29;;;;;;;8.73;6.07;;;42.20;1.00;;;;;;6270169;22;20418;-42
2023/10/06 10:36:17;;;;;;;6.10;5.50;;;42.40;1.00;;;;;;6270576;22;20651;-45
2023/10/06 10:38:44;;;;;;;7.07;5.30;;;43.00;1.00;;;;;;6274152;22;20421;-42
2023/10/06 10:41:10;;;;;;;6.70;5.27;;;43.90;1.00;;;;;;6246126;22;20379;-41
2023/10/06 10:43:45;;;;;;;6.30;5.20;;;44.00;1.00;;;;;;6273213;22;20743;-42
2023/10/06 10:46:14;;;;;;;9.03;5.70;;;44.80;1.00;;;;;;6273608;22;20385;-42
2023/10/06 10:48:49;;;;;;;5.70;5.10;;;44.60;1.00;;;;;;6273666;22;20474;-43
2023/10/06 10:51:15;;;;;;;6.23;4.47;;;44.80;1.00;;;;;;6272817;22;20370;-42
2023/10/06 10:53:45;;;;;;;8.33;6.23;;;45.10;1.00;;;;;;6273395;22;20363;-41
2023/10/06 10:56:32;;;;;;;6.33;5.83;;;45.40;1.00;;;;;;6248653;22;20527;-46
2023/10/06 10:58:58;;;;;;;5.40;4.70;;;45.50;1.00;;;;;;6250669;22;20464;-42
2023/10/06 11:01:36;;;;;;;6.07;5.47;;;45.40;1.00;;;;;;6274538;22;20387;-42
2023/10/06 11:04:17;;;;;;;5.77;5.03;;;45.50;1.00;;;;;;6247029;22;20202;-45
2023/10/06 11:06:48;;;;;;;5.50;5.00;;;45.70;1.00;;;;;;6249923;22;20646;-41
2023/10/06 11:09:36;;;;;;;5.10;4.60;;;45.90;1.00;;;;;;6274867;22;20384;-45
2023/10/06 11:12:24;;;;;;;5.80;5.20;;;46.20;1.00;;;;;;6274926;22;20603;-42
2023/10/06 11:14:51;;;;;;;6.47;5.87;;;46.90;1.00;;;;;;6271714;22;20654;-43
2023/10/06 11:17:26;;;;;;;6.00;5.40;;;46.80;1.00;;;;;;6274320;22;20374;-45
2023/10/06 11:20:26;;;;;;;6.83;6.23;;;46.20;1.00;;;;;;6272430;22;20374;-41
2023/10/06 11:22:57;;;;;;;5.70;5.20;;;46.00;1.00;;;;;;6269970;22;20640;-41
2023/10/06 11:25:29;;;;;;;6.10;5.50;;;46.20;1.00;;;;;;6270698;22;20394;-46
2023/10/06 11:28:06;;;;;;;6.00;5.50;;;46.50;1.00;;;;;;6270421;22;20393;-44
2023/10/06 11:30:34;;;;;;;6.27;5.67;;;47.00;1.00;;;;;;6290184;22;20483;-46
2023/10/06 11:33:02;;;;;;;6.77;6.17;;;47.00;1.00;;;;;;6272981;22;20771;-42
2023/10/06 11:35:29;;;;;;;25.83;9.70;;;46.80;1.00;;;;;;6298252;22;20391;-42
2023/10/06 11:37:55;;;;;;;100.87;24.30;;;46.80;1.00;;;;;;6297918;22;20424;-43
2023/10/06 11:40:24;;;;;;;253.93;50.47;;;47.20;1.00;;;;;;6299035;22;20397;-43
2023/10/06 11:42:49;;;;;;;157.17;34.70;;;47.20;1.00;;;;;;6300573;22;20178;-42
2023/10/06 11:45:27;;;;;;;110.43;27.90;;;47.10;1.00;;;;;;6299727;22;20642;-43
2023/10/06 11:47:53;;;;;;;70.73;19.63;;;47.70;1.00;;;;;;6298833;22;20400;-41
2023/10/06 11:50:22;;;;;;;103.33;28.03;;;47.70;1.00;;;;;;6301481;22;20398;-40
2023/10/06 11:52:49;;;;;;;68.40;23.00;;;47.60;1.00;;;;;;6273433;22;20390;-47
2023/10/06 11:55:25;;;;;;;80.83;24.00;;;47.30;1.00;;;;;;6300981;22;20730;-45
2023/10/06 11:57:51;;;;;;;43.63;17.20;;;47.30;1.00;;;;;;6302231;22;20477;-44
2023/10/06 12:00:18;;;;;;;44.10;16.73;;;48.00;1.00;;;;;;6276443;22;20382;-45
2023/10/06 12:02:50;;;;;;;72.23;23.53;;;48.10;1.00;;;;;;6275821;22;20235;-45
2023/10/06 12:05:19;;;;;;;119.70;30.30;;;47.90;1.00;;;;;;6304973;22;20646;-48
2023/10/06 12:07:51;;;;;;;137.13;35.83;;;48.10;1.00;;;;;;6304671;22;20519;-42
2023/10/06 12:10:19;;;;;;;90.07;23.27;;;48.10;1.00;;;;;;6304654;22;20374;-45
2023/10/06 12:12:46;;;;;;;54.80;18.20;;;48.20;1.00;;;;;;6278832;22;20484;-44
2023/10/06 12:15:15;;;;;;;41.33;16.00;;;48.40;1.00;;;;;;6305934;22;20561;-42
2023/10/06 12:17:43;;;;;;;41.00;15.17;;;48.70;1.00;;;;;;6304785;22;20472;-43
2023/10/06 12:20:23;;;;;;;51.33;17.00;;;48.50;1.00;;;;;;6304218;22;20385;-43
2023/10/06 12:22:50;;;;;;;83.13;24.77;;;48.20;1.00;;;;;;6307657;22;20429;-45
2023/10/06 12:25:16;;;;;;;84.17;23.90;;;48.40;1.00;;;;;;6304590;22;20375;-44
2023/10/06 12:27:43;;;;;;;42.00;16.00;;;48.50;1.00;;;;;;6306517;22;20778;-42
2023/10/06 12:30:13;;;;;;;71.40;20.83;;;48.90;1.00;;;;;;6271874;22;20287;-42
2023/10/06 12:32:41;;;;;;;54.23;17.97;;;49.10;1.00;;;;;;6270454;22;20374;-46
2023/10/06 12:35:07;;;;;;;54.60;18.90;;;49.00;1.00;;;;;;6272265;22;20421;-39
2023/10/06 12:37:34;;;;;;;56.30;17.50;;;48.70;1.00;;;;;;6272770;22;20445;-45
2023/10/06 12:40:00;;;;;;;30.13;13.47;;;48.60;1.00;;;;;;6272481;22;20694;-41
2023/10/06 12:42:31;;;;;;;22.93;11.43;;;48.40;1.00;;;;;;6271169;22;20713;-41
2023/10/06 12:44:58;;;;;;;19.63;10.00;;;48.40;1.00;;;;;;6268581;22;20484;-44
2023/10/06 12:47:24;;;;;;;19.17;10.50;;;48.60;1.00;;;;;;6271014;22;20758;-40
2023/10/06 12:49:49;;;;;;;18.07;9.17;;;48.50;1.00;;;;;;6272008;22;20513;-40
2023/10/06 12:52:15;;;;;;;19.23;10.47;;;48.60;1.00;;;;;;6272220;22;20433;-42
2023/10/06 12:54:41;;;;;;;12.73;10.10;;;48.30;1.00;;;;;;6270723;22;20175;-42
2023/10/06 12:57:06;;;;;;;13.40;8.33;;;48.20;1.00;;;;;;6271233;22;20279;-41
2023/10/06 12:59:35;;;;;;;10.30;8.30;;;47.70;1.00;;;;;;6268536;22;20133;-41
2023/10/06 13:02:03;;;;;;;14.10;8.33;;;47.10;1.00;;;;;;6269606;22;20231;-40
2023/10/06 13:04:30;;;;;;;9.63;8.63;;;46.50;1.00;;;;;;6270037;22;20383;-42
2023/10/06 13:06:58;;;;;;;10.93;7.63;;;46.30;1.00;;;;;;6271124;22;20379;-40
2023/10/06 13:09:27;;;;;;;12.73;7.03;;;46.30;1.00;;;;;;6273877;22;20687;-39
2023/10/06 13:11:52;;;;;;;10.53;7.10;;;46.80;1.00;;;;;;6273031;22;20697;-40